createdAt,value
2023-05-04T00:00:29.062Z,10.13
2023-05-04T00:03:14.813Z,9.18
2023-05-04T00:05:41.968Z,10.48
2023-05-04T00:08:09.226Z,10.45
2023-05-04T00:10:36.198Z,9.23
2023-05-04T00:13:03.530Z,11.43
2023-05-04T00:15:30.544Z,10.38
2023-05-04T00:17:57.963Z,10.25
2023-05-04T00:20:25.110Z,9.45
2023-05-04T00:22:52.532Z,9.73
2023-05-04T00:25:19.519Z,10.05
2023-05-04T00:27:47.036Z,9.48
2023-05-04T00:30:14.288Z,9.95
2023-05-04T00:32:41.721Z,10.60
2023-05-04T00:35:09.214Z,12.77
2023-05-04T00:37:36.739Z,10.73
2023-05-04T00:40:04.036Z,9.88
2023-05-04T00:42:31.890Z,11.63
2023-05-04T00:44:58.738Z,10.57
2023-05-04T00:47:26.664Z,10.38
2023-05-04T00:49:53.618Z,10.80
2023-05-04T00:52:21.797Z,10.13
2023-05-04T00:54:48.899Z,14.32
2023-05-04T00:57:17.407Z,10.65
2023-05-04T00:59:44.260Z,14.88
2023-05-04T01:02:11.876Z,11.55
2023-05-04T01:04:39.275Z,14.15
2023-05-04T01:07:21.213Z,16.02
2023-05-04T01:12:36.113Z,13.45
2023-05-04T01:15:03.973Z,13.18
2023-05-04T01:17:31.471Z,15.43
2023-05-04T01:19:59.057Z,9.82
2023-05-04T01:22:26.737Z,12.82
2023-05-04T01:24:55.197Z,18.92
2023-05-04T01:27:36.306Z,8.73
2023-05-04T01:30:11.180Z,13.07
2023-05-04T01:32:41.629Z,13.05
2023-05-04T01:35:09.914Z,14.75
2023-05-04T01:37:37.268Z,17.15
2023-05-04T01:40:05.627Z,13.90
2023-05-04T01:42:33.017Z,14.38
2023-05-04T01:45:00.226Z,10.93
2023-05-04T01:47:27.517Z,14.13
2023-05-04T01:49:54.699Z,13.45
2023-05-04T01:52:21.827Z,18.10
2023-05-04T01:54:48.924Z,16.08
2023-05-04T01:57:16.206Z,14.75
2023-05-04T01:59:43.452Z,14.82
2023-05-04T02:02:10.924Z,14.88
2023-05-04T02:04:38.562Z,20.17
2023-05-04T02:07:06.147Z,16.30
2023-05-04T02:09:33.733Z,16.40
2023-05-04T02:12:01.236Z,14.88
2023-05-04T02:14:29.243Z,14.82
2023-05-04T02:16:56.617Z,16.33
2023-05-04T02:19:23.993Z,21.23
2023-05-04T02:21:52.453Z,15.32
2023-05-04T02:24:22.099Z,16.85
2023-05-04T02:26:49.849Z,16.58
2023-05-04T02:29:16.891Z,18.00
2023-05-04T02:31:45.112Z,17.38
2023-05-04T02:34:14.232Z,18.77
2023-05-04T02:36:47.392Z,19.98
2023-05-04T02:39:14.824Z,18.13
2023-05-04T02:41:42.110Z,21.80
2023-05-04T02:44:09.477Z,22.42
2023-05-04T02:46:36.701Z,22.00
2023-05-04T02:49:04.189Z,19.58
2023-05-04T02:51:31.499Z,26.30
2023-05-04T02:53:58.712Z,27.17
2023-05-04T02:56:26.048Z,22.60
2023-05-04T02:58:53.181Z,20.13
2023-05-04T03:01:20.535Z,21.60
2023-05-04T03:03:47.787Z,24.30
2023-05-04T03:06:15.345Z,24.10
2023-05-04T03:08:42.340Z,23.40
2023-05-04T03:11:09.909Z,22.83
2023-05-04T03:13:37.333Z,25.52
2023-05-04T03:16:05.896Z,28.00
2023-05-04T03:18:33.080Z,27.80
2023-05-04T03:21:02.027Z,26.15
2023-05-04T03:23:29.784Z,23.67
2023-05-04T03:25:57.186Z,23.00
2023-05-04T03:28:24.780Z,25.88
2023-05-04T03:30:52.344Z,25.27
2023-05-04T03:33:21.257Z,23.83
2023-05-04T03:35:48.819Z,28.83
2023-05-04T03:38:16.718Z,32.60
2023-05-04T03:40:44.752Z,28.20
2023-05-04T03:43:12.956Z,28.75
2023-05-04T03:45:40.554Z,25.67
2023-05-04T03:48:07.632Z,25.50
2023-05-04T03:50:35.954Z,33.20
2023-05-04T03:53:03.036Z,34.30
2023-05-04T03:55:31.503Z,29.42
2023-05-04T03:57:58.424Z,28.70
2023-05-04T04:00:27.233Z,29.42
2023-05-04T04:03:02.426Z,29.30
2023-05-04T04:05:30.235Z,27.30
2023-05-04T04:07:57.606Z,25.38
2023-05-04T04:10:25.192Z,26.48
2023-05-04T04:12:53.888Z,26.33
2023-05-04T04:15:21.172Z,27.75
2023-05-04T04:17:48.206Z,28.38
2023-05-04T04:20:16.110Z,35.97
2023-05-04T04:22:43.215Z,30.92
2023-05-04T04:25:10.765Z,26.90
2023-05-04T04:27:37.989Z,36.72
2023-05-04T04:30:05.982Z,28.65
2023-05-04T04:32:34.237Z,27.10
2023-05-04T04:35:01.647Z,30.55
2023-05-04T04:37:29.156Z,31.08
2023-05-04T04:39:56.411Z,32.10
2023-05-04T04:42:23.709Z,31.85
2023-05-04T04:44:52.395Z,32.28
2023-05-04T04:47:19.738Z,30.05
2023-05-04T04:49:47.858Z,33.70
2023-05-04T04:52:15.677Z,31.05
2023-05-04T04:54:43.038Z,32.72
2023-05-04T04:57:10.813Z,30.52
2023-05-04T04:59:38.234Z,27.88
2023-05-04T05:02:05.237Z,32.50
2023-05-04T05:04:32.616Z,34.10
2023-05-04T05:07:00.053Z,29.17
2023-05-04T05:09:27.192Z,35.33
2023-05-04T05:11:54.492Z,24.20
2023-05-04T05:14:21.806Z,26.05
2023-05-04T05:16:49.016Z,30.25
2023-05-04T05:19:16.425Z,24.77
2023-05-04T05:21:43.542Z,25.75
2023-05-04T05:24:11.080Z,28.35
2023-05-04T05:26:38.156Z,26.75
2023-05-04T05:29:06.170Z,21.48
2023-05-04T05:31:33.550Z,26.75
2023-05-04T05:34:01.563Z,22.65
2023-05-04T05:36:28.935Z,26.73
2023-05-04T05:38:56.288Z,24.73
2023-05-04T05:41:24.071Z,25.95
2023-05-04T05:43:51.916Z,21.42
2023-05-04T05:46:19.239Z,25.92
2023-05-04T05:48:46.614Z,22.35
2023-05-04T05:51:13.944Z,21.33
2023-05-04T05:53:42.817Z,25.25
2023-05-04T05:56:10.331Z,24.60
2023-05-04T05:58:37.920Z,26.83
2023-05-04T06:01:05.399Z,22.45
2023-05-04T06:03:33.802Z,27.88
2023-05-04T06:06:01.476Z,18.85
2023-05-04T06:08:29.440Z,24.23
2023-05-04T06:10:56.862Z,22.08
2023-05-04T06:13:24.321Z,18.98
2023-05-04T06:15:54.770Z,17.98
2023-05-04T06:18:22.697Z,29.17
2023-05-04T06:20:50.386Z,22.25
2023-05-04T06:23:17.969Z,14.68
2023-05-04T06:25:44.824Z,18.65
2023-05-04T06:28:12.932Z,19.75
2023-05-04T06:30:39.786Z,14.02
2023-05-04T06:33:07.970Z,16.95
2023-05-04T06:35:35.227Z,16.00
2023-05-04T06:38:03.226Z,14.60
2023-05-04T06:40:30.514Z,19.48
2023-05-04T06:42:58.407Z,17.48
2023-05-04T06:45:25.630Z,12.65
2023-05-04T06:47:53.383Z,14.55
2023-05-04T06:50:20.359Z,12.55
2023-05-04T06:52:47.789Z,10.13
2023-05-04T06:55:14.701Z,12.40
2023-05-04T06:57:42.354Z,15.52
2023-05-04T07:00:10.715Z,8.77
2023-05-04T07:02:38.270Z,13.20
2023-05-04T07:05:05.803Z,8.82
2023-05-04T07:07:33.615Z,9.10
2023-05-04T07:10:00.765Z,16.00
2023-05-04T07:12:28.968Z,11.43
2023-05-04T07:14:56.997Z,11.00
2023-05-04T07:17:25.671Z,8.38
2023-05-04T07:19:53.383Z,7.05
2023-05-04T07:22:21.416Z,7.13
2023-05-04T07:24:48.448Z,7.45
2023-05-04T07:27:16.359Z,9.90
2023-05-04T07:29:44.025Z,6.07
2023-05-04T07:32:11.831Z,5.32
2023-05-04T07:34:45.765Z,4.53
2023-05-04T07:37:15.491Z,4.80
2023-05-04T07:39:42.967Z,8.15
2023-05-04T07:42:11.851Z,6.40
2023-05-04T07:44:39.752Z,8.40
2023-05-04T07:47:07.086Z,5.90
2023-05-04T07:49:34.622Z,11.73
2023-05-04T07:52:03.753Z,4.57
2023-05-04T07:54:30.902Z,5.65
2023-05-04T07:56:58.056Z,5.75
2023-05-04T07:59:25.167Z,4.68
2023-05-04T08:01:52.756Z,8.27
2023-05-04T08:04:19.997Z,5.88
2023-05-04T08:06:49.426Z,5.38
2023-05-04T08:09:19.104Z,8.18
2023-05-04T08:11:47.545Z,6.75
2023-05-04T08:14:15.430Z,7.65
2023-05-04T08:16:42.721Z,3.08
2023-05-04T08:19:10.561Z,3.15
2023-05-04T08:21:37.953Z,4.95
2023-05-04T08:24:04.962Z,3.60
2023-05-04T08:26:32.668Z,7.82
2023-05-04T08:29:07.961Z,3.10
2023-05-04T08:31:35.823Z,4.50
2023-05-04T08:34:04.271Z,5.18
2023-05-04T08:36:32.217Z,3.80
2023-05-04T08:38:59.418Z,5.72
2023-05-04T08:41:27.231Z,6.95
2023-05-04T08:43:54.776Z,3.97
2023-05-04T08:46:23.025Z,4.65
2023-05-04T08:48:51.021Z,4.32
2023-05-04T08:51:19.554Z,4.60
2023-05-04T08:53:50.351Z,3.53
2023-05-04T08:56:18.752Z,8.30
2023-05-04T08:58:52.137Z,4.43
2023-05-04T09:01:20.224Z,3.35
2023-05-04T09:03:48.201Z,5.03
2023-05-04T09:06:15.666Z,9.15
2023-05-04T09:08:43.018Z,4.38
2023-05-04T09:11:10.694Z,4.47
2023-05-04T09:13:38.653Z,3.50
2023-05-04T09:16:07.788Z,6.00
2023-05-04T09:18:38.053Z,2.67
2023-05-04T09:21:05.872Z,5.97
2023-05-04T09:23:33.777Z,6.43
2023-05-04T09:26:01.020Z,4.88
2023-05-04T09:28:38.932Z,2.40
2023-05-04T09:31:07.807Z,3.92
2023-05-04T09:33:35.132Z,3.30
2023-05-04T09:36:19.040Z,4.50
2023-05-04T09:38:46.318Z,3.00
2023-05-04T09:41:14.340Z,5.45
2023-05-04T09:43:43.884Z,3.95
2023-05-04T09:46:21.348Z,6.45
2023-05-04T09:48:52.652Z,2.53
2023-05-04T09:51:22.708Z,5.72
2023-05-04T09:53:50.679Z,2.75
2023-05-04T09:56:58.807Z,4.13
2023-05-04T09:59:31.793Z,3.38
2023-05-04T10:02:04.834Z,3.60
2023-05-04T10:04:43.592Z,2.95
2023-05-04T10:07:10.949Z,3.08
2023-05-04T10:09:39.512Z,4.63
2023-05-04T10:12:08.869Z,5.15
2023-05-04T10:14:36.428Z,4.65
2023-05-04T10:17:34.611Z,4.43
2023-05-04T10:20:17.958Z,3.17
2023-05-04T10:23:03.734Z,5.20
2023-05-04T10:25:55.353Z,4.50
2023-05-04T10:28:48.024Z,5.45
2023-05-04T10:31:15.929Z,4.72
2023-05-04T10:33:44.840Z,7.30
2023-05-04T10:36:11.926Z,13.63
2023-05-04T10:38:40.595Z,3.33
2023-05-04T10:41:18.323Z,2.47
2023-05-04T10:43:53.201Z,5.40
2023-05-04T10:46:22.638Z,5.90
2023-05-04T10:48:51.707Z,6.05
2023-05-04T10:51:35.760Z,3.83
2023-05-04T10:54:19.124Z,3.78
2023-05-04T10:56:46.073Z,4.38
2023-05-04T10:59:15.053Z,3.17
2023-05-04T11:01:44.919Z,2.08
2023-05-04T11:04:20.929Z,4.45
2023-05-04T11:07:20.725Z,4.25
2023-05-04T11:09:48.279Z,4.88
2023-05-04T11:12:15.376Z,4.10
2023-05-04T11:14:43.416Z,5.57
2023-05-04T11:17:27.537Z,8.85
2023-05-04T11:19:56.501Z,2.50
2023-05-04T11:22:23.763Z,4.18
2023-05-04T11:24:51.836Z,3.83
2023-05-04T11:27:28.612Z,3.80
2023-05-04T11:29:56.825Z,2.03
2023-05-04T11:32:34.901Z,4.78
2023-05-04T11:35:04.995Z,5.15
2023-05-04T11:37:40.360Z,13.02
2023-05-04T11:40:19.716Z,3.38
2023-05-04T11:42:47.258Z,4.15
2023-05-04T11:45:18.101Z,4.40
2023-05-04T11:47:47.317Z,5.30
2023-05-04T11:50:17.072Z,5.00
2023-05-04T11:52:45.084Z,5.07
2023-05-04T11:55:25.536Z,5.13
2023-05-04T11:58:07.187Z,5.32
2023-05-04T12:00:45.464Z,8.18
2023-05-04T12:03:13.788Z,6.10
2023-05-04T12:05:49.533Z,9.18
2023-05-04T12:08:27.817Z,6.10
2023-05-04T12:11:20.567Z,4.57
2023-05-04T12:13:49.075Z,5.25
2023-05-04T12:16:20.277Z,6.05
2023-05-04T12:18:48.439Z,3.08
2023-05-04T12:21:20.060Z,5.25
2023-05-04T12:26:18.148Z,2.95
2023-05-04T12:28:47.291Z,4.43
2023-05-04T12:31:15.436Z,7.53
2023-05-04T12:33:43.046Z,7.40
2023-05-04T12:36:11.389Z,4.85
2023-05-04T12:38:39.102Z,3.75
2023-05-04T12:41:10.963Z,2.38
2023-05-04T12:43:38.872Z,6.10
2023-05-04T12:46:06.710Z,5.25
2023-05-04T12:48:33.758Z,8.43
2023-05-04T12:51:03.892Z,5.78
2023-05-04T12:53:32.602Z,7.72
2023-05-04T12:56:01.567Z,5.45
2023-05-04T12:58:28.841Z,3.08
2023-05-04T13:00:58.154Z,4.50
2023-05-04T13:03:25.852Z,3.80
2023-05-04T13:05:53.705Z,7.50
2023-05-04T13:08:21.303Z,2.63
2023-05-04T13:10:48.610Z,5.95
2023-05-04T13:13:17.918Z,6.10
2023-05-04T13:15:50.395Z,4.45
2023-05-04T13:18:17.576Z,7.05
2023-05-04T13:20:45.858Z,9.05
2023-05-04T13:23:14.082Z,3.60
2023-05-04T13:25:42.207Z,5.88
2023-05-04T13:28:09.314Z,6.65
2023-05-04T13:30:36.938Z,4.38
2023-05-04T13:33:13.337Z,5.65
2023-05-04T13:35:49.307Z,4.88
2023-05-04T13:38:16.533Z,7.07
2023-05-04T13:40:44.227Z,5.05
2023-05-04T13:43:11.652Z,5.78
2023-05-04T13:45:39.634Z,8.75
2023-05-04T13:48:07.325Z,4.75
2023-05-04T13:50:34.769Z,3.22
2023-05-04T13:53:02.979Z,4.00
2023-05-04T13:55:30.318Z,7.03
2023-05-04T13:57:57.501Z,6.30
2023-05-04T14:00:25.018Z,4.43
2023-05-04T14:02:52.475Z,5.20
2023-05-04T14:05:20.718Z,3.38
2023-05-04T14:07:48.281Z,4.32
2023-05-04T14:10:15.781Z,5.68
2023-05-04T14:12:42.868Z,10.70
2023-05-04T14:15:10.979Z,7.88
2023-05-04T14:17:39.714Z,7.57
2023-05-04T14:20:08.910Z,4.05
2023-05-04T14:22:38.156Z,10.30
2023-05-04T14:25:06.234Z,4.88
2023-05-04T14:27:35.633Z,7.97
2023-05-04T14:30:05.032Z,5.63
2023-05-04T14:32:32.336Z,3.15
2023-05-04T14:35:08.228Z,6.72
2023-05-04T14:37:40.674Z,8.85
2023-05-04T14:40:10.902Z,5.35
2023-05-04T14:42:39.235Z,5.95
2023-05-04T14:45:08.304Z,4.28
2023-05-04T14:47:36.583Z,4.22
2023-05-04T14:50:05.117Z,3.83
2023-05-04T14:52:32.494Z,6.50
2023-05-04T14:54:59.752Z,5.63
2023-05-04T14:57:27.158Z,5.22
2023-05-04T14:59:55.155Z,5.68
2023-05-04T15:02:22.438Z,5.22
2023-05-04T15:04:50.010Z,4.97
2023-05-04T15:07:20.515Z,3.72
2023-05-04T15:09:47.860Z,6.75
2023-05-04T15:12:14.913Z,6.20
2023-05-04T15:14:42.381Z,7.07
2023-05-04T15:17:09.705Z,2.63
2023-05-04T15:19:38.435Z,5.40
2023-05-04T15:22:06.686Z,3.03
2023-05-04T15:24:34.065Z,5.05
2023-05-04T15:27:02.254Z,13.57
2023-05-04T15:29:29.706Z,8.35
2023-05-04T15:31:56.958Z,6.22
2023-05-04T15:34:24.367Z,5.43
2023-05-04T15:36:52.172Z,4.60
2023-05-04T15:39:19.619Z,6.18
2023-05-04T15:41:46.627Z,4.53
2023-05-04T15:44:14.287Z,4.28
2023-05-04T15:46:41.228Z,6.55
2023-05-04T15:49:08.672Z,5.70
2023-05-04T15:51:35.586Z,7.47
2023-05-04T15:54:03.846Z,3.33
2023-05-04T15:56:30.777Z,6.95
2023-05-04T15:58:58.305Z,4.50
2023-05-04T16:01:25.647Z,4.82
2023-05-04T16:03:59.857Z,6.28
2023-05-04T16:06:27.345Z,5.45
2023-05-04T16:08:54.878Z,3.90
2023-05-04T16:11:23.070Z,6.05
2023-05-04T16:13:50.867Z,4.10
2023-05-04T16:16:18.013Z,7.43
2023-05-04T16:18:46.002Z,4.28
2023-05-04T16:21:15.136Z,6.90
2023-05-04T16:23:43.121Z,7.45
2023-05-04T16:26:10.143Z,4.00
2023-05-04T16:28:38.118Z,5.50
2023-05-04T16:31:06.329Z,6.80
2023-05-04T16:33:35.653Z,3.67
2023-05-04T16:36:06.487Z,9.55
2023-05-04T16:38:34.078Z,9.05
2023-05-04T16:41:01.422Z,8.00
2023-05-04T16:43:30.034Z,5.65
2023-05-04T16:45:57.878Z,7.65
2023-05-04T16:48:25.693Z,4.35
2023-05-04T16:50:52.627Z,5.47
2023-05-04T16:53:20.954Z,5.32
2023-05-04T16:55:47.935Z,3.25
2023-05-04T16:58:15.588Z,5.88
2023-05-04T17:00:42.847Z,7.15
2023-05-04T17:03:10.458Z,6.78
2023-05-04T17:05:37.428Z,6.13
2023-05-04T17:08:05.705Z,8.85
2023-05-04T17:10:32.896Z,8.27
2023-05-04T17:13:02.220Z,5.07
2023-05-04T17:15:30.136Z,4.63
2023-05-04T17:17:57.542Z,2.90
2023-05-04T17:20:28.730Z,2.85
2023-05-04T17:22:58.716Z,5.03
2023-05-04T17:25:27.053Z,5.95
2023-05-04T17:27:54.945Z,5.13
2023-05-04T17:30:22.426Z,9.98
2023-05-04T17:32:49.787Z,12.82
2023-05-04T17:35:25.289Z,12.30
2023-05-04T17:37:58.519Z,5.18
2023-05-04T17:40:28.128Z,8.35
2023-05-04T17:42:56.431Z,11.70
2023-05-04T17:45:24.115Z,8.13
2023-05-04T17:47:51.677Z,8.75
2023-05-04T17:50:19.861Z,9.68
2023-05-04T17:52:51.764Z,6.63
2023-05-04T17:55:19.225Z,7.35
2023-05-04T17:57:46.442Z,5.90
2023-05-04T18:00:13.979Z,5.38
2023-05-04T18:02:41.847Z,4.78
2023-05-04T18:05:09.304Z,4.57
2023-05-04T18:07:36.763Z,6.57
2023-05-04T18:10:04.087Z,4.93
2023-05-04T18:12:31.559Z,3.22
2023-05-04T18:14:58.752Z,9.63
2023-05-04T18:17:27.393Z,12.10
2023-05-04T18:19:54.583Z,4.60
2023-05-04T18:22:22.695Z,5.97
2023-05-04T18:24:49.925Z,8.73
2023-05-04T18:27:17.282Z,4.82
2023-05-04T18:29:44.421Z,6.45
2023-05-04T18:32:11.791Z,7.43
2023-05-04T18:34:39.041Z,6.78
2023-05-04T18:37:07.088Z,10.40
2023-05-04T18:39:34.343Z,7.40
2023-05-04T18:42:01.940Z,6.43
2023-05-04T18:44:28.965Z,11.88
2023-05-04T18:46:56.932Z,11.85
2023-05-04T18:49:24.769Z,13.65
2023-05-04T18:51:52.087Z,13.00
2023-05-04T18:54:19.165Z,21.50
2023-05-04T18:56:46.467Z,20.33
2023-05-04T18:59:13.857Z,23.10
2023-05-04T19:01:41.417Z,16.40
2023-05-04T19:04:08.866Z,15.45
2023-05-04T19:06:36.190Z,13.75
2023-05-04T19:09:03.616Z,11.23
2023-05-04T19:11:30.797Z,13.02
2023-05-04T19:13:58.210Z,21.80
2023-05-04T19:16:27.286Z,14.15
2023-05-04T19:18:55.669Z,16.65
2023-05-04T19:21:23.104Z,10.18
2023-05-04T19:23:50.552Z,9.98
2023-05-04T19:26:17.850Z,14.15
2023-05-04T19:28:44.988Z,12.98
2023-05-04T19:31:12.305Z,13.40
2023-05-04T19:33:47.803Z,9.30
2023-05-04T19:36:17.249Z,12.70
2023-05-04T19:38:44.213Z,16.20
2023-05-04T19:41:11.497Z,14.43
2023-05-04T19:43:38.907Z,13.13
2023-05-04T19:46:06.659Z,14.70
2023-05-04T19:48:33.639Z,15.80
2023-05-04T19:51:01.251Z,13.90
2023-05-04T19:53:28.231Z,14.85
2023-05-04T19:55:55.882Z,13.85
2023-05-04T19:58:26.160Z,10.77
2023-05-04T20:00:53.988Z,13.93
2023-05-04T20:03:20.995Z,13.38
2023-05-04T20:05:50.991Z,15.05
2023-05-04T20:08:19.287Z,16.05
2023-05-04T20:10:47.011Z,20.35
2023-05-04T20:13:14.028Z,12.57
2023-05-04T20:15:42.716Z,13.57
2023-05-04T20:18:09.963Z,19.60
2023-05-04T20:20:37.361Z,22.65
2023-05-04T20:23:04.502Z,20.55
2023-05-04T20:25:32.391Z,20.10
2023-05-04T20:27:59.425Z,21.42
2023-05-04T20:30:28.870Z,22.58
2023-05-04T20:32:56.196Z,16.13
2023-05-04T20:35:23.794Z,19.98
2023-05-04T20:37:50.874Z,18.52
2023-05-04T20:40:18.327Z,16.08
2023-05-04T20:42:45.360Z,19.65
2023-05-04T20:45:13.419Z,20.90
2023-05-04T20:47:40.391Z,17.88
2023-05-04T20:50:10.054Z,13.38
2023-05-04T20:52:38.540Z,18.33
2023-05-04T20:55:07.790Z,15.45
2023-05-04T20:57:35.519Z,14.98
2023-05-04T21:00:03.702Z,14.25
2023-05-04T21:02:31.252Z,15.15
2023-05-04T21:04:58.748Z,14.88
2023-05-04T21:07:25.710Z,14.07
2023-05-04T21:09:58.249Z,20.58
2023-05-04T21:12:25.860Z,17.73
2023-05-04T21:14:53.074Z,28.92
2023-05-04T21:17:20.145Z,20.52
2023-05-04T21:19:47.341Z,20.75
2023-05-04T21:22:17.617Z,24.48
2023-05-04T21:24:48.027Z,15.87
2023-05-04T21:27:15.238Z,19.60
2023-05-04T21:29:42.754Z,19.58
2023-05-04T21:32:10.030Z,22.95
2023-05-04T21:34:37.202Z,29.08
2023-05-04T21:37:04.291Z,18.05
2023-05-04T21:39:31.745Z,19.65
2023-05-04T21:41:58.951Z,27.35
2023-05-04T21:44:26.262Z,13.60
2023-05-04T21:46:53.428Z,10.73
2023-05-04T21:49:20.666Z,14.70
2023-05-04T21:51:47.809Z,18.00
2023-05-04T21:54:14.952Z,19.08
2023-05-04T21:56:42.082Z,15.25
2023-05-04T21:59:09.718Z,17.83
2023-05-04T22:01:36.718Z,23.35
2023-05-04T22:04:07.091Z,11.82
2023-05-04T22:06:34.380Z,16.42
2023-05-04T22:09:01.912Z,23.27
2023-05-04T22:11:29.685Z,15.38
2023-05-04T22:13:57.163Z,18.85
2023-05-04T22:16:24.792Z,11.57
2023-05-04T22:18:52.205Z,15.50
2023-05-04T22:21:19.422Z,17.08
2023-05-04T22:23:47.078Z,14.93
2023-05-04T22:26:13.972Z,18.98
2023-05-04T22:28:41.467Z,41.15
2023-05-04T22:31:08.430Z,24.25
2023-05-04T22:33:35.870Z,42.85
2023-05-04T22:36:02.725Z,24.25
2023-05-04T22:38:29.921Z,24.52
2023-05-04T22:40:56.968Z,15.15
2023-05-04T22:43:24.932Z,29.35
2023-05-04T22:45:51.951Z,23.35
2023-05-04T22:48:20.109Z,17.52
2023-05-04T22:50:48.715Z,28.02
2023-05-04T22:53:15.892Z,30.60
2023-05-04T22:55:42.933Z,18.95
2023-05-04T22:58:11.324Z,27.80
2023-05-04T23:00:38.327Z,18.88
2023-05-04T23:03:06.563Z,17.08
2023-05-04T23:05:33.459Z,20.02
2023-05-04T23:08:00.870Z,17.13
2023-05-04T23:10:27.764Z,16.73
2023-05-04T23:12:55.059Z,14.85
2023-05-04T23:15:24.660Z,20.63
2023-05-04T23:17:51.886Z,18.58
2023-05-04T23:20:19.233Z,20.75
2023-05-04T23:22:46.631Z,16.73
2023-05-04T23:25:13.849Z,15.57
2023-05-04T23:27:41.089Z,13.60
2023-05-04T23:30:09.212Z,22.80
2023-05-04T23:32:36.865Z,44.85
2023-05-04T23:35:04.454Z,21.00
2023-05-04T23:37:34.189Z,12.23
2023-05-04T23:40:01.727Z,19.98
2023-05-04T23:42:29.070Z,12.77
2023-05-04T23:44:56.404Z,16.55
2023-05-04T23:47:23.786Z,13.00
2023-05-04T23:49:50.770Z,10.80
2023-05-04T23:52:17.957Z,15.40
2023-05-04T23:54:45.013Z,19.73
2023-05-04T23:57:12.420Z,12.93
2023-05-04T23:59:40.478Z,12.30
